Flight Track Log - Related Links

Times and Time Zones

All times are in EDT time to prevent confusion due to time zone crossing. See the N5171E flight status page for this flight to view local times or setup timezone preferences in your user account.

Time Position Orientation Groundspeed Altitude Reporting Facility
EDT Latitude Longitude Course Direction KTS MPH feet Rate Location/Type
Sun 08:14:20 AM 24.7636 -81.7736 358° North 130 150 8,000  Level Miami Center
Sun 08:15:21 AM 24.7908 -81.7747 North 94 108 6,000 -1,000 Descending Miami Center
Sun 08:16:20 AM 24.8181 -81.7733 North 94 108 6,000  Level Miami Center
Sun 08:17:20 AM 24.8472 -81.7722 North 130 150 6,000  Level Miami Center
Sun 08:18:20 AM 24.8725 -81.7711 North 114 131 6,000 1,000 Level Miami Center
Sun 08:19:20 AM 24.8997 -81.7697 358° North 102 117 8,000 1,000 Climbing Miami Center
Sun 08:20:20 AM 24.9372 -81.7714 North 108 124 8,000  Level Miami Center
Sun 08:21:20 AM 24.9747 -81.7683 North 120 138 8,000  Level Miami Center
Sun 08:22:20 AM 25.0144 -81.7675 North 120 138 8,000  Level Miami Center
Sun 08:23:20 AM 25.0542 -81.7669 North 120 138 8,000  Level Miami Center
Sun 08:24:20 AM 25.0939 -81.7661 North 120 138 8,000  Level Miami Center
Sun 08:25:20 AM 25.1317 -81.7653 North 120 138 8,000  Level Miami Center
Sun 08:26:21 AM 25.1714 -81.7622 North 120 138 8,000  Level Miami Center
Sun 08:27:20 AM 25.2131 -81.7617 North 120 138 8,000  Level Miami Center
Sun 08:28:20 AM 25.2528 -81.7611 358° North 120 138 8,000  Level Miami Center
Sun 08:29:20 AM 25.2925 -81.7625 North 120 138 8,000  Level Miami Center
Sun 08:30:21 AM 25.3342 -81.7597 North 120 138 8,000  Level Miami Center
Sun 08:31:20 AM 25.3739 -81.7589 358° North 120 138 8,000  Level Miami Center
Sun 08:32:20 AM 25.4136 -81.7606 North 120 138 8,000  Level Miami Center
Sun 08:33:21 AM 25.4533 -81.7600 10° North 120 138 8,000  Level Miami Center
Sun 08:34:20 AM 25.4933 -81.7522 355° North 120 138 8,000  Level Miami Center
Sun 08:35:20 AM 25.5306 -81.7561 North 125 144 8,000  Level Miami Center
Sun 08:36:20 AM 25.5747 -81.7533 358° North 125 144 8,000  Level Miami Center
Sun 08:37:21 AM 25.6142 -81.7550 North 120 138 8,000  Level Miami Center
Sun 08:38:20 AM 25.6561 -81.7544 358° North 120 138 8,000  Level Miami Center
Sun 08:39:20 AM 25.6956 -81.7558 North 120 138 8,000  Level Miami Center
Sun 08:40:21 AM 25.7375 -81.7531 North 120 138 8,000  Level Miami Center
Sun 08:41:21 AM 25.7814 -81.7525 North 125 144 8,000  Level Miami Center
Sun 08:42:20 AM 25.8211 -81.7517 356° North 130 150 8,000  Level Miami Center
Sun 09:11:20 AM 27.0056 -81.8547 349° North 135 155 8,000  Level Miami Center
Sun 09:12:20 AM 27.0447 -81.8633 352° North 146 168 8,000  Level Miami Center
Sun 09:13:20 AM 27.0842 -81.8697 349° North 153 176 8,000  Level Miami Center
Sun 09:14:20 AM 27.1236 -81.8783 348° North 153 176 8,000  Level Miami Center
Sun 09:15:20 AM 27.1608 -81.8869 349° North 147 169 8,000  Level Miami Center
Sun 09:16:20 AM 27.2022 -81.8958 352° North 147 169 8,000  Level Miami Center
Sun 09:17:20 AM 27.2417 -81.9022 349° North 152 175 8,000  Level Miami Center
Sun 09:18:20 AM 27.2811 -81.9108 352° North 152 175 8,000  Level Miami Center
Sun 09:19:20 AM 27.3206 -81.9172 349° North 152 175 8,000  Level Miami Center
Sun 09:20:20 AM 27.3600 -81.9261 349° North 152 175 8,000  Level Miami Center
Sun 09:21:20 AM 27.4014 -81.9350 352° North 152 175 8,000  Level Miami Center
Sun 09:22:20 AM 27.4408 -81.9414 355° North 152 175 8,000  Level Miami Center
Sun 09:23:20 AM 27.4803 -81.9456 352° North 152 175 8,000  Level Miami Center
Sun 09:24:20 AM 27.5197 -81.9519 352° North 152 175 8,000  Level Miami Center
Sun 09:25:20 AM 27.5592 -81.9583 352° North 152 175 8,000  Level Miami Center
Sun 09:26:20 AM 27.5986 -81.9647 349° North 152 175 8,000  Level Miami Center
Sun 09:27:20 AM 27.6378 -81.9736 355° North 152 175 8,000  Level Miami Center
Sun 09:28:20 AM 27.6794 -81.9778 352° North 152 175 8,000  Level Miami Center
Sun 09:29:20 AM 27.7189 -81.9842 352° North 152 175 8,000  Level Miami Center
Sun 09:30:20 AM 27.7625 -81.9908 351° North 152 175 8,000  Level Miami Center
Sun 09:31:21 AM 27.7997 -81.9972 346° North 157 181 8,000  Level Miami Center
Sun 09:32:21 AM 27.8411 -82.0086 355° North 157 181 8,000  Level Miami Center
Sun 09:33:20 AM 27.8806 -82.0125 349° North 157 181 8,000  Level Miami Center
Sun 09:34:20 AM 27.9200 -82.0214 352° North 152 175 8,000  Level Miami Center
Sun 09:35:21 AM 27.9614 -82.0281 339° North 152 175 8,000  Level Miami Center
Sun 09:36:20 AM 27.9983 -82.0439 337° Northwest 152 175 8,000  Level Miami Center
Sun 09:37:20 AM 28.0353 -82.0619 327° Northwest 152 175 8,000  Level Miami Center
Sun 09:38:21 AM 28.0697 -82.0869 325° Northwest 147 169 8,000  Level Miami Center
Sun 10:06:01 AM 28.9219 -82.7669 304° West 130 150 8,000  Level Jacksonville Center
Sun 10:07:00 AM 28.9472 -82.8094 313° West 150 173 8,000  Level Jacksonville Center
Sun 10:08:00 AM 28.9722 -82.8403 309° West 150 173 8,000  Level Jacksonville Center
Sun 10:09:00 AM 28.9994 -82.8783 306° West 150 173 8,000  Level Jacksonville Center
Sun 10:10:00 AM 29.0222 -82.9139 311° West 150 173 8,000  Level Jacksonville Center
Sun 10:11:00 AM 29.0472 -82.9472 309° West 152 175 8,000  Level Jacksonville Center
Sun 10:12:01 AM 29.0722 -82.9828 306° West 152 175 8,000  Level Jacksonville Center
Sun 10:13:01 AM 29.0953 -83.0186 311° West 152 175 8,000  Level Jacksonville Center
Sun 10:14:01 AM 29.1203 -83.0519 304° West 152 175 8,000  Level Jacksonville Center
Sun 10:15:01 AM 29.1411 -83.0875 309° West 152 175 8,000  Level Jacksonville Center
Sun 10:16:00 AM 29.1661 -83.1233 308° West 152 175 8,000  Level Jacksonville Center
Sun 10:17:01 AM 29.1889 -83.1567 304° West 152 175 8,000  Level Jacksonville Center
Sun 10:18:00 AM 29.2097 -83.1925 309° West 152 175 8,000  Level Jacksonville Center
Sun 10:19:01 AM 29.2347 -83.2281 308° West 147 169 8,000  Level Jacksonville Center
Sun 10:20:01 AM 29.2575 -83.2617 306° West 152 175 8,000  Level Jacksonville Center
Sun 10:21:00 AM 29.2783 -83.2950 304° West 147 169 8,000  Level Jacksonville Center
Sun 10:22:01 AM 29.3011 -83.3331 306° West 152 175 8,000  Level Jacksonville Center
Sun 10:23:01 AM 29.3242 -83.3689 298° West 152 175 8,000  Level Jacksonville Center
Sun 10:24:01 AM 29.3406 -83.4047 305° West 146 168 8,000  Level Jacksonville Center
Sun 10:25:00 AM 29.3614 -83.4383 302° West 146 168 8,000  Level Jacksonville Center
Sun 10:26:00 AM 29.3819 -83.4764 306° West 146 168 8,000  Level Jacksonville Center
Sun 10:27:00 AM 29.4050 -83.5122 301° West 141 162 8,000  Level Jacksonville Center
Sun 10:28:00 AM 29.4236 -83.5483 308° West 141 162 8,000  Level Jacksonville Center
Sun 10:29:00 AM 29.4464 -83.5817 312° West 141 162 8,000  Level Jacksonville Center
Sun 10:30:00 AM 29.4711 -83.6131 310° West 152 175 8,000  Level Jacksonville Center
Sun 10:31:00 AM 29.4939 -83.6442 304° West 145 167 8,000  Level Jacksonville Center
Sun 10:32:00 AM 29.5147 -83.6800 315° West 145 167 8,000  Level Jacksonville Center
Sun 10:33:00 AM 29.5417 -83.7114 312° West 145 167 8,000  Level Jacksonville Center
Sun 10:34:00 AM 29.5644 -83.7403 308° West 145 167 8,000  Level Jacksonville Center
Sun 10:35:00 AM 29.5869 -83.7739 315° West 145 167 8,000  Level Jacksonville Center
Sun 10:36:00 AM 29.6139 -83.8050 317° Northwest 145 167 8,000  Level Jacksonville Center
Sun 10:37:00 AM 29.6408 -83.8342 305° West 145 167 8,000  Level Jacksonville Center
Sun 10:38:00 AM 29.6594 -83.8653 308° West 145 167 8,000  Level Jacksonville Center
Sun 10:39:00 AM 29.6842 -83.9014 302° West 145 167 8,000  Level Jacksonville Center
Sun 10:40:00 AM 29.7047 -83.9400 306° West 145 167 8,000  Level Jacksonville Center
Sun 10:41:00 AM 29.7275 -83.9761 308° West 145 167 8,000  Level Jacksonville Center
Sun 10:42:00 AM 29.7500 -84.0097 301° West 145 167 8,000  Level Jacksonville Center
Sun 10:43:00 AM 29.7686 -84.0458 310° West 145 167 8,000  Level Jacksonville Center
Sun 10:44:00 AM 29.7914 -84.0772 310° West 145 167 8,000  Level Jacksonville Center
Sun 10:45:00 AM 29.8161 -84.1111 300° West 145 167 8,000  Level Jacksonville Center
Sun 10:46:00 AM 29.8344 -84.1472 305° West 145 167 8,000  Level Jacksonville Center
Sun 10:47:01 AM 29.8550 -84.1811 308° West 145 167 8,000  Level Jacksonville Center
Sun 10:48:00 AM 29.8775 -84.2147 303° West 145 167 8,000  Level Jacksonville Center
Sun 10:49:01 AM 29.8981 -84.2511 307° West 145 167 8,000  Level Jacksonville Center
Sun 10:50:01 AM 29.9206 -84.2850 303° West 145 167 8,000  Level Jacksonville Center
Sun 10:51:01 AM 29.9411 -84.3211 283° West 145 167 8,000  Level Jacksonville Center
Sun 10:52:01 AM 29.9628 -84.4342 244° Southwest 145 167 8,000  Level Jacksonville Center
Sun 10:53:01 AM 29.9414 -84.4842 256° West 145 167 8,000  Level Jacksonville Center
Sun 10:54:01 AM 29.9258 -84.5558 254° West 145 167 8,000  Level Jacksonville Center
Sun 10:55:00 AM 29.9081 -84.6272 256° West 145 167 8,000  Level Jacksonville Center
Sun 10:56:00 AM 29.8925 -84.6989 253° West 145 167 8,000  Level Jacksonville Center
Sun 10:57:01 AM 29.8814 -84.7419 North 145 167 8,000  Level Jacksonville Center
Sun 11:09:00 AM 30.3132 -84.6860 271° West  Level FlightAware Approximate
Sun 11:10:00 AM 30.3140 -84.7303 18° North  Level FlightAware Approximate
Sun 11:11:00 AM 30.3503 -84.7170 270° West  Level FlightAware Approximate
Sun 11:12:00 AM 30.3505 -84.7613 270° West  Level FlightAware Approximate
Sun 11:13:00 AM 30.3507 -84.8057 270° West  Level FlightAware Approximate
Sun 11:14:00 AM 30.3509 -84.8500 270° West  Level FlightAware Approximate
Sun 11:15:00 AM 30.3511 -84.8944 270° West  Level FlightAware Approximate
Sun 11:16:00 AM 30.3512 -84.9387 270° West  Level FlightAware Approximate
Sun 11:17:00 AM 30.3514 -84.9831 270° West  Level FlightAware Approximate
Sun 11:18:00 AM 30.3515 -85.0275 270° West  Level FlightAware Approximate
Sun 11:19:00 AM 30.3516 -85.0718 270° West  Level FlightAware Approximate
Sun 11:20:00 AM 30.3517 -85.1161 270° West  Level FlightAware Approximate
Sun 11:21:00 AM 30.3518 -85.1605 270° West  Level FlightAware Approximate
Sun 11:22:00 AM 30.3518 -85.2048 270° West  Level FlightAware Approximate
Sun 11:23:00 AM 30.3519 -85.2492 270° West  Level FlightAware Approximate
Sun 11:24:00 AM 30.3519 -85.2935 270° West  Level FlightAware Approximate
Sun 11:25:00 AM 30.3519 -85.3379 270° West  Level FlightAware Approximate
Sun 11:26:00 AM 30.3519 -85.3822 270° West  Level FlightAware Approximate
Sun 11:27:00 AM 30.3519 -85.4266 270° West  Level FlightAware Approximate
Sun 11:28:00 AM 30.3519 -85.4709 270° West  Level FlightAware Approximate
Sun 11:29:00 AM 30.3519 -85.5153 270° West  Level FlightAware Approximate
Sun 11:30:00 AM 30.3518 -85.5596 270° West  Level FlightAware Approximate
Sun 11:31:00 AM 30.3517 -85.6040 270° West  Level FlightAware Approximate
Sun 11:32:00 AM 30.3516 -85.6484 270° West  Level FlightAware Approximate
Sun 11:33:00 AM 30.3515 -85.6927 270° West  Level FlightAware Approximate
Sun 11:34:00 AM 30.3514 -85.7371 270° West  Level FlightAware Approximate
Sun 11:35:00 AM 30.3513 -85.7814 270° West  Level FlightAware Approximate
Sun 11:36:00 AM 30.3511 -85.8258 270° West  Level FlightAware Approximate
Sun 11:37:00 AM 30.3510 -85.8701 270° West  Level FlightAware Approximate
Sun 11:38:00 AM 30.3508 -85.9145 270° West  Level FlightAware Approximate
Sun 11:39:00 AM 30.3506 -85.9588 270° West  Level FlightAware Approximate
Sun 11:40:00 AM 30.3504 -86.0032 270° West  Level FlightAware Approximate
Sun 11:41:00 AM 30.3502 -86.0475 270° West  Level FlightAware Approximate
Sun 11:42:00 AM 30.3500 -86.0919 270° West  Level FlightAware Approximate
Sun 11:43:00 AM 30.3497 -86.1362 270° West  Level FlightAware Approximate
Sun 11:44:00 AM 30.3494 -86.1806 270° West  Level FlightAware Approximate
Sun 11:45:00 AM 30.3492 -86.2249 270° West  Level FlightAware Approximate
Sun 11:46:00 AM 30.3489 -86.2693 270° West  Level FlightAware Approximate
Sun 11:47:00 AM 30.3486 -86.3136 270° West  Level FlightAware Approximate
Sun 11:48:00 AM 30.3482 -86.3580 270° West  Level FlightAware Approximate
Sun 11:49:00 AM 30.3479 -86.4023 269° West  Level FlightAware Approximate
Sun 11:50:00 AM 30.3475 -86.4467 269° West  Level FlightAware Approximate
Sun 11:51:00 AM 30.3472 -86.4910 269° West  Level FlightAware Approximate
Sun 11:52:00 AM 30.3468 -86.5354 269° West  Level FlightAware Approximate
Sun 11:53:00 AM 30.3464 -86.5797 269° West  Level FlightAware Approximate
Sun 11:54:00 AM 30.3460 -86.6241 269° West  Level FlightAware Approximate
Sun 11:55:00 AM 30.3455 -86.6684 269° West  Level FlightAware Approximate
Sun 11:56:00 AM 30.3451 -86.7128 269° West  Level FlightAware Approximate
Sun 11:57:00 AM 30.3446 -86.7571 269° West  Level FlightAware Approximate
Sun 11:58:00 AM 30.3442 -86.8015 269° West  Level FlightAware Approximate
Sun 11:59:00 AM 30.3437 -86.8458 269° West  Level FlightAware Approximate
Sun 12:00:00 PM 30.3432 -86.8902 269° West  Level FlightAware Approximate
Sun 12:01:00 PM 30.3426 -86.9345 265° West  Level FlightAware Approximate
Sun 12:33:00 PM 30.2833 -87.6667 325° Northwest  Level FlightAware Approximate
Sun 12:34:00 PM 30.3158 -87.6930 145° Southeast  Level Estimated
Sun 12:35:00 PM 30.2833 -87.6667 325° Northwest  Level FlightAware Approximate
Sun 12:36:00 PM 30.3158 -87.6930 145° Southeast  Level Estimated
Sun 12:37:00 PM 30.2833 -87.6667 325° Northwest  Level FlightAware Approximate
Sun 12:38:00 PM 30.3158 -87.6930 145° Southeast  Level Estimated
Sun 12:39:00 PM 30.2833 -87.6667 145° Southeast  Level FlightAware Approximate

Login

Don't have an account? Register now (free) for customized features, flight alerts, and more!